Time;durP1;ratioP1;P1;durP2;ratioP2;P2;SDS_P1;SDS_P2;PMS_P1;PMS_P2;Temp;Humidity;BMP_temperature;BMP_pressure;BME280_temperature;BME280_humidity;BME280_pressure;Samples;Min_cycle;Max_cycle;Signal;HPM_P1;HPM_P2
2022/03/11 00:00:42;;;;;;;;;49.25;38.00;;;;;;;;5111181;27;28424;-90
2022/03/11 00:03:07;;;;;;;;;33.00;33.00;;;;;;;;5110254;27;28384;-88
2022/03/11 00:05:33;;;;;;;;;50.00;40.25;;;;;;;;5110968;27;28694;-88
2022/03/11 00:07:58;;;;;;;;;39.33;39.00;;;;;;;;5111067;27;28568;-89
2022/03/11 00:10:23;;;;;;;;;41.75;38.75;;;;;;;;5111130;27;28506;-89
2022/03/11 00:12:48;;;;;;;;;43.50;36.25;;;;;;;;5110277;27;28376;-88
2022/03/11 00:15:14;;;;;;;;;40.75;39.75;;;;;;;;5110284;27;28489;-89
2022/03/11 00:17:40;;;;;;;;;41.20;38.40;;;;;;;;5110800;27;28437;-88
2022/03/11 00:20:06;;;;;;;;;45.00;40.00;;;;;;;;5110945;27;28428;-88
2022/03/11 00:22:31;;;;;;;;;43.50;38.50;;;;;;;;5111218;27;27805;-88
2022/03/11 00:24:56;;;;;;;;;45.67;38.67;;;;;;;;5110602;27;28331;-88
2022/03/11 00:27:21;;;;;;;;;47.67;39.67;;;;;;;;5111093;27;28880;-88
2022/03/11 00:29:47;;;;;;;;;34.67;33.00;;;;;;;;5110728;27;28430;-88
2022/03/11 00:32:12;;;;;;;;;48.00;40.00;;;;;;;;5110755;27;28438;-88
2022/03/11 00:34:37;;;;;;;;;47.33;40.67;;;;;;;;5110712;27;28302;-88
2022/03/11 00:37:02;;;;;;;;;40.50;36.75;;;;;;;;5110957;27;28119;-88
2022/03/11 00:39:28;;;;;;;;;44.50;39.50;;;;;;;;5110441;27;28419;-88
2022/03/11 00:41:53;;;;;;;;;42.00;40.00;;;;;;;;5110507;27;28515;-88
2022/03/11 00:44:20;;;;;;;;;35.00;32.33;;;;;;;;5110595;27;28374;-89
2022/03/11 00:46:45;;;;;;;;;37.75;37.00;;;;;;;;5110772;27;28411;-88
2022/03/11 00:49:10;;;;;;;;;42.25;38.75;;;;;;;;5110285;27;28500;-88
2022/03/11 00:51:35;;;;;;;;;40.50;34.75;;;;;;;;5110484;27;28393;-89
2022/03/11 00:54:01;;;;;;;;;42.00;40.00;;;;;;;;5110398;27;28293;-90
2022/03/11 00:56:28;;;;;;;;;40.00;35.33;;;;;;;;5110449;27;28412;-88
2022/03/11 00:58:53;;;;;;;;;42.80;38.00;;;;;;;;5110401;27;28337;-88
2022/03/11 01:01:18;;;;;;;;;43.00;40.00;;;;;;;;5109951;27;28372;-89
2022/03/11 01:03:44;;;;;;;;;36.00;32.00;;;;;;;;5110324;27;28448;-89
2022/03/11 01:06:09;;;;;;;;;38.50;37.00;;;;;;;;5110457;27;28307;-90
2022/03/11 01:08:34;;;;;;;;;43.33;39.33;;;;;;;;5110144;27;28453;-89
2022/03/11 01:11:00;;;;;;;;;39.75;34.00;;;;;;;;5110351;27;28552;-90
2022/03/11 01:13:25;;;;;;;;;42.50;39.00;;;;;;;;5110373;27;28325;-88
2022/03/11 01:15:50;;;;;;;;;40.33;32.67;;;;;;;;5109220;27;28493;-88
2022/03/11 01:18:16;;;;;;;;;47.00;39.25;;;;;;;;5110117;27;28575;-88
2022/03/11 01:20:41;;;;;;;;;35.75;28.00;;;;;;;;5109917;27;28551;-89
2022/03/11 01:23:06;;;;;;;;;38.67;35.00;;;;;;;;5110194;27;28297;-88
2022/03/11 01:25:31;;;;;;;;;40.75;38.25;;;;;;;;5110005;27;28329;-89
2022/03/11 01:27:57;;;;;;;;;32.00;28.00;;;;;;;;5109713;27;29321;-88
2022/03/11 01:30:22;;;;;;;;;39.00;32.75;;;;;;;;5110014;27;28404;-89
2022/03/11 01:32:47;;;;;;;;;45.00;36.67;;;;;;;;5110031;27;27807;-88
2022/03/11 01:35:12;;;;;;;;;32.67;30.67;;;;;;;;5110065;27;28314;-88
2022/03/11 01:37:38;;;;;;;;;38.00;34.00;;;;;;;;5109939;27;28609;-88
2022/03/11 01:40:03;;;;;;;;;34.67;29.33;;;;;;;;5109872;27;27998;-88
2022/03/11 01:42:29;;;;;;;;;35.50;31.50;;;;;;;;5109712;27;27718;-88
2022/03/11 01:44:54;;;;;;;;;34.75;30.75;;;;;;;;5109967;27;28275;-89
2022/03/11 01:47:19;;;;;;;;;52.00;36.00;;;;;;;;5109923;27;28365;-88
2022/03/11 01:49:45;;;;;;;;;36.67;36.67;;;;;;;;5109579;27;28752;-89
2022/03/11 01:52:13;;;;;;;;;36.75;31.50;;;;;;;;5109898;27;28358;-88
2022/03/11 01:54:41;;;;;;;;;31.00;31.00;;;;;;;;5110123;27;28425;-89
2022/03/11 01:57:07;;;;;;;;;33.00;31.40;;;;;;;;5109518;27;28399;-89
2022/03/11 01:59:32;;;;;;;;;28.25;28.25;;;;;;;;5109817;27;28413;-89
2022/03/11 02:01:57;;;;;;;;;34.67;29.00;;;;;;;;5108826;27;28459;-89
2022/03/11 02:04:23;;;;;;;;;28.00;28.00;;;;;;;;5108120;27;28562;-88
2022/03/11 02:06:49;;;;;;;;;29.75;29.75;;;;;;;;5109397;27;29177;-88
2022/03/11 02:09:14;;;;;;;;;29.60;25.20;;;;;;;;5109200;27;28344;-88
2022/03/11 02:11:39;;;;;;;;;27.67;27.67;;;;;;;;5109670;27;28883;-88
2022/03/11 02:14:05;;;;;;;;;39.33;32.67;;;;;;;;5109404;27;28384;-89
2022/03/11 02:16:31;;;;;;;;;31.75;29.25;;;;;;;;5108818;27;29137;-88
2022/03/11 02:18:57;;;;;;;;;30.40;28.40;;;;;;;;5109619;27;28437;-89
2022/03/11 02:21:23;;;;;;;;;28.20;27.00;;;;;;;;5109342;27;28395;-88
2022/03/11 02:23:50;;;;;;;;;30.00;24.75;;;;;;;;5109404;27;28437;-88
2022/03/11 02:26:16;;;;;;;;;29.60;27.20;;;;;;;;5109081;27;28394;-88
2022/03/11 02:28:42;;;;;;;;;25.33;25.33;;;;;;;;5111289;27;28422;-88
2022/03/11 02:31:07;;;;;;;;;31.50;27.50;;;;;;;;5113088;27;28333;-88
2022/03/11 02:33:33;;;;;;;;;30.50;26.50;;;;;;;;5113215;27;28235;-88
2022/03/11 02:35:58;;;;;;;;;25.50;25.00;;;;;;;;5111423;27;29833;-88
2022/03/11 02:38:23;;;;;;;;;26.00;26.00;;;;;;;;5112880;27;28337;-87
2022/03/11 02:40:49;;;;;;;;;32.67;26.67;;;;;;;;5112731;27;28510;-88
2022/03/11 02:43:14;;;;;;;;;26.60;24.00;;;;;;;;5113068;27;28334;-89
2022/03/11 02:45:39;;;;;;;;;28.50;26.75;;;;;;;;5112578;27;28783;-88
2022/03/11 02:48:05;;;;;;;;;24.50;23.00;;;;;;;;5112840;27;28296;-88
2022/03/11 02:50:30;;;;;;;;;33.00;30.00;;;;;;;;5112742;27;28264;-88
2022/03/11 02:52:55;;;;;;;;;22.00;20.00;;;;;;;;5112666;27;28305;-88
2022/03/11 02:55:21;;;;;;;;;29.75;27.25;;;;;;;;5112764;27;28285;-88
2022/03/11 02:57:46;;;;;;;;;25.00;25.00;;;;;;;;5112506;27;28554;-87
2022/03/11 03:00:11;;;;;;;;;29.00;26.00;;;;;;;;5112743;27;28786;-88
2022/03/11 03:02:37;;;;;;;;;22.25;22.25;;;;;;;;5112435;27;28534;-88
2022/03/11 03:05:02;;;;;;;;;28.75;22.75;;;;;;;;5112096;27;28304;-88
2022/03/11 03:07:27;;;;;;;;;24.00;24.00;;;;;;;;5112394;27;28599;-87
2022/03/11 03:09:53;;;;;;;;;31.67;28.33;;;;;;;;5112361;27;28506;-87
2022/03/11 03:12:18;;;;;;;;;30.67;26.67;;;;;;;;5112794;27;28399;-87
2022/03/11 03:14:43;;;;;;;;;29.67;26.33;;;;;;;;5112071;27;29379;-88
2022/03/11 03:17:08;;;;;;;;;30.33;26.33;;;;;;;;5112109;27;28952;-87
2022/03/11 03:19:35;;;;;;;;;21.33;21.33;;;;;;;;5112368;27;28368;-88
2022/03/11 03:22:00;;;;;;;;;27.75;24.00;;;;;;;;5112241;27;28318;-88
2022/03/11 03:24:26;;;;;;;;;21.25;21.25;;;;;;;;5112215;27;28575;-88
2022/03/11 03:26:51;;;;;;;;;33.00;26.00;;;;;;;;5111936;27;28391;-88
2022/03/11 03:29:16;;;;;;;;;26.00;26.00;;;;;;;;5112349;27;28335;-87
2022/03/11 03:31:41;;;;;;;;;26.50;26.50;;;;;;;;5112105;27;28262;-87
2022/03/11 03:34:06;;;;;;;;;32.00;23.75;;;;;;;;5112010;27;28770;-88
2022/03/11 03:36:32;;;;;;;;;24.25;23.00;;;;;;;;5111950;27;28288;-88
2022/03/11 03:38:57;;;;;;;;;30.25;22.00;;;;;;;;5111271;27;28364;-87
2022/03/11 03:41:22;;;;;;;;;29.50;29.00;;;;;;;;5112219;27;28485;-87
2022/03/11 03:43:48;;;;;;;;;25.50;23.25;;;;;;;;5111784;27;28260;-89
2022/03/11 03:46:14;;;;;;;;;22.00;21.25;;;;;;;;5111647;27;28240;-88
2022/03/11 03:48:39;;;;;;;;;21.80;21.20;;;;;;;;5111964;27;28236;-87
2022/03/11 03:51:05;;;;;;;;;22.00;22.00;;;;;;;;5111743;27;28266;-87
2022/03/11 03:53:30;;;;;;;;;27.75;24.00;;;;;;;;5111607;27;28435;-88
2022/03/11 03:55:55;;;;;;;;;27.33;27.33;;;;;;;;5111516;27;28706;-87
2022/03/11 03:58:20;;;;;;;;;29.00;28.00;;;;;;;;5111544;27;28588;-87
2022/03/11 04:00:46;;;;;;;;;24.67;20.00;;;;;;;;5108525;27;28801;-87
2022/03/11 04:03:11;;;;;;;;;21.25;21.25;;;;;;;;5111062;27;28518;-87
2022/03/11 04:05:37;;;;;;;;;23.00;23.00;;;;;;;;5111159;27;28590;-87
2022/03/11 04:08:03;;;;;;;;;26.50;24.50;;;;;;;;5111359;27;28468;-88
2022/03/11 04:10:28;;;;;;;;;25.33;20.67;;;;;;;;5110585;27;28307;-88
2022/03/11 04:12:54;;;;;;;;;26.67;22.67;;;;;;;;5108138;27;29201;-87
2022/03/11 04:15:20;;;;;;;;;26.50;24.75;;;;;;;;5101943;27;27959;-88
2022/03/11 04:17:45;;;;;;;;;26.00;26.00;;;;;;;;5090728;27;28385;-87
2022/03/11 04:20:11;;;;;;;;;20.00;20.00;;;;;;;;5090868;28;28434;-88
2022/03/11 04:22:40;;;;;;;;;29.00;29.00;;;;;;;;5091286;27;28647;-88
2022/03/11 04:25:06;;;;;;;;;29.25;25.75;;;;;;;;5111279;27;28248;-88
2022/03/11 04:27:31;;;;;;;;;29.00;27.75;;;;;;;;5111222;27;28267;-88
2022/03/11 04:29:56;;;;;;;;;29.25;29.25;;;;;;;;5111492;27;28334;-88
2022/03/11 04:32:21;;;;;;;;;25.00;25.00;;;;;;;;5111033;27;29475;-87
2022/03/11 04:34:47;;;;;;;;;23.00;21.00;;;;;;;;5106496;27;28578;-88
2022/03/11 04:37:12;;;;;;;;;27.00;25.00;;;;;;;;5090553;28;28388;-88
2022/03/11 04:39:37;;;;;;;;;27.67;25.67;;;;;;;;5090447;28;28400;-88
2022/03/11 04:42:06;;;;;;;;;26.33;23.33;;;;;;;;5090388;28;29248;-88
2022/03/11 04:44:31;;;;;;;;;25.50;22.25;;;;;;;;5094424;27;27984;-87
2022/03/11 04:46:56;;;;;;;;;25.00;23.00;;;;;;;;5110672;27;28255;-88
2022/03/11 04:49:22;;;;;;;;;25.33;22.33;;;;;;;;5111129;27;28433;-88
2022/03/11 04:51:47;;;;;;;;;26.00;22.00;;;;;;;;5109425;27;29872;-88
2022/03/11 04:54:12;;;;;;;;;27.00;24.33;;;;;;;;5109104;27;28654;-88
2022/03/11 04:56:37;;;;;;;;;28.25;27.75;;;;;;;;5090254;28;28266;-87
2022/03/11 04:59:03;;;;;;;;;22.67;22.67;;;;;;;;5090342;27;28492;-88
2022/03/11 05:01:28;;;;;;;;;24.25;24.25;;;;;;;;5091032;27;28711;-88
2022/03/11 05:03:54;;;;;;;;;24.50;19.00;;;;;;;;5092409;27;28405;-87
2022/03/11 05:06:19;;;;;;;;;25.33;25.33;;;;;;;;5092355;27;28339;-87
2022/03/11 05:08:44;;;;;;;;;26.75;26.00;;;;;;;;5090430;28;28400;-88
2022/03/11 05:11:09;;;;;;;;;30.33;26.00;;;;;;;;5096174;27;28480;-87
2022/03/11 05:13:35;;;;;;;;;29.67;26.33;;;;;;;;5110715;27;28185;-88
2022/03/11 05:16:00;;;;;;;;;26.00;25.50;;;;;;;;5110175;27;28343;-89
2022/03/11 05:18:25;;;;;;;;;20.75;20.75;;;;;;;;5110638;27;28424;-88
2022/03/11 05:20:51;;;;;;;;;21.33;21.33;;;;;;;;5109951;27;29032;-87
2022/03/11 05:23:16;;;;;;;;;20.75;20.75;;;;;;;;5100232;27;28536;-87
2022/03/11 05:25:42;;;;;;;;;23.25;23.25;;;;;;;;5089781;28;28352;-88
2022/03/11 05:28:08;;;;;;;;;21.00;19.50;;;;;;;;5089675;28;28460;-87
2022/03/11 05:30:33;;;;;;;;;23.25;22.50;;;;;;;;5089693;27;28561;-88
2022/03/11 05:32:58;;;;;;;;;23.00;22.75;;;;;;;;5089426;28;28489;-88
2022/03/11 05:35:23;;;;;;;;;28.75;22.75;;;;;;;;5100627;27;28302;-87
2022/03/11 05:37:49;;;;;;;;;26.33;21.33;;;;;;;;5109505;27;28412;-87
2022/03/11 05:40:14;;;;;;;;;22.50;19.50;;;;;;;;5107065;27;28472;-88
2022/03/11 05:42:40;;;;;;;;;18.50;18.50;;;;;;;;5089386;27;28485;-87
2022/03/11 05:45:07;;;;;;;;;26.25;24.00;;;;;;;;5089482;27;28468;-87
2022/03/11 05:47:32;;;;;;;;;26.00;21.00;;;;;;;;5089742;28;28418;-88
2022/03/11 05:49:57;;;;;;;;;21.67;20.00;;;;;;;;5089356;28;29910;-87
2022/03/11 05:52:23;;;;;;;;;20.00;18.25;;;;;;;;5109222;27;28235;-87
2022/03/11 05:54:48;;;;;;;;;25.25;23.00;;;;;;;;5109901;27;27735;-87
2022/03/11 05:57:14;;;;;;;;;17.50;17.50;;;;;;;;5109746;27;28888;-88
2022/03/11 05:59:39;;;;;;;;;19.00;16.50;;;;;;;;5108893;27;29503;-87
2022/03/11 06:02:04;;;;;;;;;22.25;19.25;;;;;;;;5109089;27;28298;-88
2022/03/11 06:04:30;;;;;;;;;26.33;24.33;;;;;;;;5109723;27;28323;-87
2022/03/11 06:06:55;;;;;;;;;19.00;19.00;;;;;;;;5109845;27;28300;-88
2022/03/11 06:09:20;;;;;;;;;24.50;21.50;;;;;;;;5108772;27;28500;-87
2022/03/11 06:11:45;;;;;;;;;35.50;30.50;;;;;;;;5109300;27;28400;-87
2022/03/11 06:14:10;;;;;;;;;25.00;25.00;;;;;;;;5109372;27;28235;-88
2022/03/11 06:16:36;;;;;;;;;30.67;27.00;;;;;;;;5109519;27;28261;-88
2022/03/11 06:19:01;;;;;;;;;31.00;27.00;;;;;;;;5109453;27;29752;-88
2022/03/11 06:21:26;;;;;;;;;28.67;26.33;;;;;;;;5099902;27;28415;-87
2022/03/11 06:23:52;;;;;;;;;28.67;26.67;;;;;;;;5087758;28;28392;-89
2022/03/11 06:26:17;;;;;;;;;21.00;20.00;;;;;;;;5087764;27;28755;-88
2022/03/11 06:28:42;;;;;;;;;29.67;25.67;;;;;;;;5093583;27;28951;-88
2022/03/11 06:31:08;;;;;;;;;28.33;27.33;;;;;;;;5106148;27;28459;-87
2022/03/11 06:33:33;;;;;;;;;23.00;21.00;;;;;;;;5088729;27;28507;-88
2022/03/11 06:35:59;;;;;;;;;30.33;22.33;;;;;;;;5088977;28;28405;-88
2022/03/11 06:38:24;;;;;;;;;24.00;24.00;;;;;;;;5088536;28;29603;-88
2022/03/11 06:40:49;;;;;;;;;22.75;20.75;;;;;;;;5091137;27;28116;-88
2022/03/11 06:43:15;;;;;;;;;27.00;22.50;;;;;;;;5109187;27;28318;-88
2022/03/11 06:45:40;;;;;;;;;25.67;21.00;;;;;;;;5109319;27;28323;-87
2022/03/11 06:48:05;;;;;;;;;23.67;20.00;;;;;;;;5108717;27;28521;-89
2022/03/11 06:50:31;;;;;;;;;27.33;24.00;;;;;;;;5089603;27;28743;-88
2022/03/11 06:52:56;;;;;;;;;29.67;24.33;;;;;;;;5088378;27;27877;-87
2022/03/11 06:55:21;;;;;;;;;20.33;20.33;;;;;;;;5087474;28;28314;-89
2022/03/11 06:57:47;;;;;;;;;28.25;25.25;;;;;;;;5087033;28;28888;-89
2022/03/11 07:00:13;;;;;;;;;28.67;23.67;;;;;;;;5088608;27;28436;-88
2022/03/11 07:02:39;;;;;;;;;23.20;22.20;;;;;;;;5088185;28;28246;-88
2022/03/11 07:05:04;;;;;;;;;21.80;21.20;;;;;;;;5088390;28;28478;-87
2022/03/11 07:07:30;;;;;;;;;22.80;22.80;;;;;;;;5088266;28;28625;-87
2022/03/11 07:09:56;;;;;;;;;21.00;21.00;;;;;;;;5100136;27;28270;-88
2022/03/11 07:12:21;;;;;;;;;28.00;27.50;;;;;;;;5109049;27;28431;-88
2022/03/11 07:14:48;;;;;;;;;25.33;24.33;;;;;;;;5111113;27;28441;-87
2022/03/11 07:17:14;;;;;;;;;24.40;23.40;;;;;;;;5111859;27;29281;-88
2022/03/11 07:19:39;;;;;;;;;24.25;22.75;;;;;;;;5101815;27;28314;-87
2022/03/11 07:22:05;;;;;;;;;22.00;22.00;;;;;;;;5091915;27;28321;-89
2022/03/11 07:24:30;;;;;;;;;26.00;22.67;;;;;;;;5108996;27;28494;-88
2022/03/11 07:26:56;;;;;;;;;20.00;18.50;;;;;;;;5094812;27;28464;-88
2022/03/11 07:29:21;;;;;;;;;22.67;21.00;;;;;;;;5091517;28;28347;-87
2022/03/11 07:31:46;;;;;;;;;27.75;25.00;;;;;;;;5091687;28;28472;-88
2022/03/11 07:34:12;;;;;;;;;24.00;21.50;;;;;;;;5091381;28;28422;-87
2022/03/11 07:36:37;;;;;;;;;23.25;23.25;;;;;;;;5091380;28;29749;-88
2022/03/11 07:39:03;;;;;;;;;21.25;21.00;;;;;;;;5099606;27;28905;-92
2022/03/11 07:41:29;;;;;;;;;19.75;19.50;;;;;;;;5102384;27;28490;-91
2022/03/11 07:43:55;;;;;;;;;26.25;22.25;;;;;;;;5097327;27;28719;-89
2022/03/11 07:46:23;;;;;;;;;23.67;19.33;;;;;;;;5094867;27;28388;-89
2022/03/11 07:48:48;;;;;;;;;17.50;17.25;;;;;;;;5098802;27;28489;-92
2022/03/11 07:51:13;;;;;;;;;16.00;15.25;;;;;;;;5106789;27;28408;-91
2022/03/11 07:53:38;;;;;;;;;46.33;44.00;;;;;;;;5100717;27;28659;-91
2022/03/11 07:56:05;;;;;;;;;15.25;15.00;;;;;;;;5110878;27;28673;-91
2022/03/11 07:58:30;;;;;;;;;26.00;22.00;;;;;;;;5109485;27;28744;-89
2022/03/11 08:00:56;;;;;;;;;20.75;20.00;;;;;;;;5111141;27;28554;-90
2022/03/11 08:03:22;;;;;;;;;20.00;18.75;;;;;;;;5101804;27;29007;-89
2022/03/11 08:05:47;;;;;;;;;21.50;17.50;;;;;;;;5090641;27;29582;-87
2022/03/11 08:08:12;;;;;;;;;25.00;23.00;;;;;;;;5091258;27;28825;-90
2022/03/11 08:10:38;;;;;;;;;13.50;13.50;;;;;;;;5109677;27;28777;-93
2022/03/11 08:13:06;;;;;;;;;19.25;19.25;;;;;;;;5105042;27;28634;-90
2022/03/11 08:15:31;;;;;;;;;19.20;18.00;;;;;;;;5100426;27;29233;-92
2022/03/11 08:17:57;;;;;;;;;21.75;21.75;;;;;;;;5110243;27;29937;-93
2022/03/11 08:20:22;;;;;;;;;19.50;17.75;;;;;;;;5095523;27;28476;-90
2022/03/11 08:22:50;;;;;;;;;21.50;16.75;;;;;;;;5107114;27;28967;-90
2022/03/11 08:25:15;;;;;;;;;20.00;17.25;;;;;;;;5088377;27;28546;-87
2022/03/11 08:27:41;;;;;;;;;22.00;20.00;;;;;;;;5100583;27;28463;-89
2022/03/11 08:30:07;;;;;;;;;32.00;26.25;;;;;;;;5097170;27;28748;-86
2022/03/11 08:32:32;;;;;;;;;28.00;23.25;;;;;;;;5114775;27;28460;-89
2022/03/11 08:34:58;;;;;;;;;22.50;18.75;;;;;;;;5103445;27;28425;-90
2022/03/11 08:37:24;;;;;;;;;21.00;21.00;;;;;;;;5095039;27;28403;-89
2022/03/11 08:39:49;;;;;;;;;78.33;66.67;;;;;;;;5089170;27;27896;-90
2022/03/11 08:42:14;;;;;;;;;18.75;18.75;;;;;;;;5089584;27;30009;-92
2022/03/11 08:44:39;;;;;;;;;16.33;15.33;;;;;;;;5089592;27;29055;-90
2022/03/11 08:47:05;;;;;;;;;17.50;14.75;;;;;;;;5089455;27;28046;-90
2022/03/11 08:49:30;;;;;;;;;16.00;14.67;;;;;;;;5098560;27;28403;-89
2022/03/11 08:51:56;;;;;;;;;16.60;15.60;;;;;;;;5109886;27;28499;-90
2022/03/11 08:54:21;;;;;;;;;14.40;14.40;;;;;;;;5109819;27;28523;-94
2022/03/11 08:56:46;;;;;;;;;17.33;17.33;;;;;;;;5095683;27;29316;-94
2022/03/11 08:59:12;;;;;;;;;20.33;16.00;;;;;;;;5112606;27;28373;-94
2022/03/11 09:01:38;;;;;;;;;15.50;15.50;;;;;;;;5113800;27;28329;-93
2022/03/11 09:04:03;;;;;;;;;18.75;15.25;;;;;;;;5099362;27;29619;-94
2022/03/11 09:06:29;;;;;;;;;79.50;67.00;;;;;;;;5109914;27;28447;-93
2022/03/11 09:08:54;;;;;;;;;104.00;90.00;;;;;;;;5097795;27;28453;-96
2022/03/11 09:11:20;;;;;;;;;16.00;16.00;;;;;;;;5105434;27;28543;-92
2022/03/11 09:13:47;;;;;;;;;16.33;16.33;;;;;;;;5116419;27;28413;-94
2022/03/11 09:16:13;;;;;;;;;16.80;16.80;;;;;;;;5115484;27;29441;-94
2022/03/11 09:18:38;;;;;;;;;19.25;19.25;;;;;;;;5114673;27;28872;-92
2022/03/11 09:21:04;;;;;;;;;21.00;15.50;;;;;;;;5115146;27;28416;-91
2022/03/11 09:23:30;;;;;;;;;15.75;12.75;;;;;;;;5121812;27;29446;-94
2022/03/11 09:25:56;;;;;;;;;68.33;59.00;;;;;;;;5114670;27;28478;-94
2022/03/11 09:28:22;;;;;;;;;41.67;38.00;;;;;;;;5130911;27;28411;-93
2022/03/11 09:30:47;;;;;;;;;69.67;59.33;;;;;;;;5132572;27;28771;-92
2022/03/11 09:33:12;;;;;;;;;19.67;19.00;;;;;;;;5129247;27;29941;-91
2022/03/11 09:35:38;;;;;;;;;15.75;12.25;;;;;;;;5128545;27;28848;-90
2022/03/11 09:38:03;;;;;;;;;15.50;13.75;;;;;;;;5130324;27;28528;-94
2022/03/11 09:40:31;;;;;;;;;61.67;53.00;;;;;;;;5117999;27;28877;-95
2022/03/11 09:42:57;;;;;;;;;104.00;89.75;;;;;;;;5110248;27;28280;-94
2022/03/11 09:45:25;;;;;;;;;94.40;78.40;;;;;;;;5104356;27;29452;-90
2022/03/11 09:47:51;;;;;;;;;81.60;68.20;;;;;;;;5092238;27;28480;-91
2022/03/11 09:50:16;;;;;;;;;96.00;81.00;;;;;;;;5092947;27;28399;-93
2022/03/11 09:52:42;;;;;;;;;16.00;16.00;;;;;;;;5109904;27;28699;-93
2022/03/11 09:55:07;;;;;;;;;17.00;14.80;;;;;;;;5109418;27;28512;-93
2022/03/11 09:57:34;;;;;;;;;98.25;87.00;;;;;;;;5095758;27;28603;-94
2022/03/11 09:59:59;;;;;;;;;97.75;85.50;;;;;;;;5102985;27;28564;-94
2022/03/11 10:02:24;;;;;;;;;51.00;47.00;;;;;;;;5107704;27;30157;-94
2022/03/11 10:04:52;;;;;;;;;11.00;10.00;;;;;;;;5110267;27;28485;-93
2022/03/11 10:07:24;;;;;;;;;12.50;12.50;;;;;;;;5102222;27;28333;-94
2022/03/11 10:09:50;;;;;;;;;15.00;13.50;;;;;;;;5113258;27;28852;-95
2022/03/11 10:12:28;;;;;;;;;16.00;10.50;;;;;;;;5114352;27;28289;-94
2022/03/11 10:14:58;;;;;;;;;15.00;15.00;;;;;;;;5110999;27;28873;-96
2022/03/11 10:17:23;;;;;;;;;14.00;12.25;;;;;;;;5116638;27;28342;-96
2022/03/11 10:20:06;;;;;;;;;14.00;12.00;;;;;;;;5115237;27;28360;-95
2022/03/11 10:22:34;;;;;;;;;13.50;11.25;;;;;;;;5113586;27;30962;-96
2022/03/11 10:25:06;;;;;;;;;13.00;13.00;;;;;;;;5125787;27;28768;-95
2022/03/11 10:27:31;;;;;;;;;12.00;12.00;;;;;;;;5116599;27;28419;-96
2022/03/11 10:30:01;;;;;;;;;11.67;11.67;;;;;;;;5118590;27;28369;-96
2022/03/11 10:32:26;;;;;;;;;16.50;15.00;;;;;;;;5115721;27;30203;-96
2022/03/11 10:34:52;;;;;;;;;10.00;10.00;;;;;;;;5111583;27;28799;-92
2022/03/11 10:37:17;;;;;;;;;16.25;14.25;;;;;;;;5104940;27;28586;-93
2022/03/11 10:39:44;;;;;;;;;15.00;15.00;;;;;;;;5105162;27;28514;-91
2022/03/11 10:42:12;;;;;;;;;11.60;11.40;;;;;;;;5099200;27;28516;-90
2022/03/11 10:44:37;;;;;;;;;11.00;11.00;;;;;;;;5088127;28;28506;-90
2022/03/11 10:47:19;;;;;;;;;13.00;12.00;;;;;;;;5088920;28;28327;-90
2022/03/11 10:49:52;;;;;;;;;11.00;11.00;;;;;;;;5097922;27;28346;-91
2022/03/11 10:52:30;;;;;;;;;10.80;10.80;;;;;;;;5110493;27;28273;-90
2022/03/11 10:54:55;;;;;;;;;93.25;81.50;;;;;;;;5091928;28;28377;-91
2022/03/11 10:57:32;;;;;;;;;91.50;77.00;;;;;;;;5092162;27;28318;-90
2022/03/11 11:00:08;;;;;;;;;12.33;12.33;;;;;;;;5091996;28;28468;-91
2022/03/11 11:02:33;;;;;;;;;12.75;12.25;;;;;;;;5091917;27;28577;-90
2022/03/11 11:04:58;;;;;;;;;10.33;10.33;;;;;;;;5092493;28;28596;-90
2022/03/11 11:07:24;;;;;;;;;44.00;43.00;;;;;;;;5092793;27;28392;-91
2022/03/11 11:09:49;;;;;;;;;90.50;79.50;;;;;;;;5101032;27;28833;-90
2022/03/11 11:12:16;;;;;;;;;9.50;9.50;;;;;;;;5092151;27;29102;-91
2022/03/11 11:14:41;;;;;;;;;9.20;9.20;;;;;;;;5092024;28;28430;-90
2022/03/11 11:17:07;;;;;;;;;91.67;80.33;;;;;;;;5091858;28;28379;-91
2022/03/11 11:19:33;;;;;;;;;11.00;7.00;;;;;;;;5101053;27;28333;-91
2022/03/11 11:21:59;;;;;;;;;14.50;11.00;;;;;;;;5111913;27;28587;-90
2022/03/11 11:24:24;;;;;;;;;45.50;39.75;;;;;;;;5112510;27;28305;-91
2022/03/11 11:26:53;;;;;;;;;94.67;82.33;;;;;;;;5111755;27;29106;-91
2022/03/11 11:29:27;;;;;;;;;90.60;80.60;;;;;;;;5111974;27;28444;-91
2022/03/11 11:31:53;;;;;;;;;96.00;87.00;;;;;;;;5111416;27;28475;-90
2022/03/11 11:34:37;;;;;;;;;98.00;89.75;;;;;;;;5112859;27;28846;-94
2022/03/11 11:37:06;;;;;;;;;91.20;80.80;;;;;;;;5102755;27;28052;-94
2022/03/11 11:39:36;;;;;;;;;13.00;11.50;;;;;;;;5098792;28;28541;-94
2022/03/11 11:42:06;;;;;;;;;14.25;14.25;;;;;;;;5102838;28;28344;-93
2022/03/11 11:44:35;;;;;;;;;16.40;13.80;;;;;;;;5114807;27;28716;-95
2022/03/11 11:47:12;;;;;;;;;10.00;10.00;;;;;;;;5100416;27;27700;-93
2022/03/11 11:49:46;;;;;;;;;12.50;10.25;;;;;;;;5105585;27;28388;-93
2022/03/11 11:52:24;;;;;;;;;10.00;10.00;;;;;;;;5111772;27;29304;-90
2022/03/11 11:54:50;;;;;;;;;13.25;11.50;;;;;;;;5111346;27;28406;-91
2022/03/11 11:57:16;;;;;;;;;12.00;8.75;;;;;;;;5112052;27;28322;-92
2022/03/11 11:59:42;;;;;;;;;17.50;17.50;;;;;;;;5109362;27;28595;-91
2022/03/11 12:02:22;;;;;;;;;40.00;38.75;;;;;;;;5111380;27;28535;-89
2022/03/11 12:04:47;;;;;;;;;9.50;8.00;;;;;;;;5113273;27;28542;-90
2022/03/11 12:07:14;;;;;;;;;74.33;62.33;;;;;;;;5093158;27;28833;-87
2022/03/11 12:12:22;;;;;;;;;10.67;9.00;;;;;;;;5090813;28;28445;-87
2022/03/11 12:15:08;;;;;;;;;16.25;16.25;;;;;;;;5090883;28;28481;-87
2022/03/11 12:17:42;;;;;;;;;9.60;7.40;;;;;;;;5096296;27;28320;-87
2022/03/11 12:20:26;;;;;;;;;53.25;47.25;;;;;;;;5109907;27;29999;-87
2022/03/11 12:22:52;;;;;;;;;7.75;7.75;;;;;;;;5106748;27;28595;-87
2022/03/11 12:25:20;;;;;;;;;16.60;11.80;;;;;;;;5110797;27;28446;-87
2022/03/11 12:27:58;;;;;;;;;97.50;90.75;;;;;;;;5111224;27;28348;-87
2022/03/11 12:30:23;;;;;;;;;8.00;8.00;;;;;;;;5111352;27;28338;-88
2022/03/11 12:32:50;;;;;;;;;97.75;85.75;;;;;;;;5110850;27;29089;-87
2022/03/11 12:35:17;;;;;;;;;90.75;77.00;;;;;;;;5109667;27;30129;-87
2022/03/11 12:37:42;;;;;;;;;100.00;88.75;;;;;;;;5089286;28;28362;-88
2022/03/11 12:40:10;;;;;;;;;96.25;83.50;;;;;;;;5090346;28;28481;-88
2022/03/11 12:42:39;;;;;;;;;79.00;65.50;;;;;;;;5105451;27;28581;-88
2022/03/11 12:45:06;;;;;;;;;11.00;11.00;;;;;;;;5109004;27;28484;-88
2022/03/11 12:47:35;;;;;;;;;13.25;13.25;;;;;;;;5110990;27;28504;-88
2022/03/11 12:50:00;;;;;;;;;11.00;11.00;;;;;;;;5111007;27;28329;-88
2022/03/11 12:52:26;;;;;;;;;9.40;9.40;;;;;;;;5107317;27;28311;-88
2022/03/11 12:54:52;;;;;;;;;10.20;10.20;;;;;;;;5095341;27;28857;-89
2022/03/11 12:57:17;;;;;;;;;13.75;13.00;;;;;;;;5120093;27;27888;-88
2022/03/11 12:59:44;;;;;;;;;13.67;9.67;;;;;;;;5131819;27;28435;-88
2022/03/11 13:02:10;;;;;;;;;12.60;10.00;;;;;;;;5131091;27;29237;-88
2022/03/11 13:04:42;;;;;;;;;11.20;11.20;;;;;;;;5131156;27;28466;-88
2022/03/11 13:07:08;;;;;;;;;14.40;13.00;;;;;;;;5108355;27;28374;-87
2022/03/11 13:09:33;;;;;;;;;8.67;8.67;;;;;;;;5131329;27;28401;-87
2022/03/11 13:12:18;;;;;;;;;17.67;12.67;;;;;;;;5120112;27;29307;-88
2022/03/11 13:14:43;;;;;;;;;15.00;11.00;;;;;;;;5110487;27;28457;-87
2022/03/11 13:17:08;;;;;;;;;10.00;10.00;;;;;;;;5108990;27;28546;-88
2022/03/11 13:19:34;;;;;;;;;11.25;9.25;;;;;;;;5110607;27;28384;-87
2022/03/11 13:21:59;;;;;;;;;14.00;10.25;;;;;;;;5110288;27;29760;-87
2022/03/11 13:24:24;;;;;;;;;14.00;14.00;;;;;;;;5108183;27;28492;-87
2022/03/11 13:26:49;;;;;;;;;54.00;46.00;;;;;;;;5108505;27;28315;-88
2022/03/11 13:29:15;;;;;;;;;21.67;21.00;;;;;;;;5106743;27;28309;-88
2022/03/11 13:31:40;;;;;;;;;70.67;60.00;;;;;;;;5130843;27;28546;-88
2022/03/11 13:34:09;;;;;;;;;53.00;46.00;;;;;;;;5114159;27;28403;-88
2022/03/11 13:36:34;;;;;;;;;99.25;88.25;;;;;;;;5110022;27;28877;-88
2022/03/11 13:39:06;;;;;;;;;92.33;76.33;;;;;;;;5106655;27;28540;-87
2022/03/11 13:41:42;;;;;;;;;99.00;88.75;;;;;;;;5089271;27;28430;-88
2022/03/11 13:44:11;;;;;;;;;98.00;85.80;;;;;;;;5089166;27;28307;-88
2022/03/11 13:46:37;;;;;;;;;100.75;85.00;;;;;;;;5091810;27;28515;-88
2022/03/11 13:49:05;;;;;;;;;102.75;91.00;;;;;;;;5106229;27;28330;-88
2022/03/11 13:55:46;;;;;;;;;38.50;36.25;;;;;;;;5118311;27;28730;-86
2022/03/11 13:58:15;;;;;;;;;10.00;10.00;;;;;;;;5120638;27;28716;-87
2022/03/11 14:00:40;;;;;;;;;14.75;14.75;;;;;;;;5113203;27;28482;-87
2022/03/11 14:03:19;;;;;;;;;15.00;13.50;;;;;;;;5107949;27;28579;-87
2022/03/11 14:05:45;;;;;;;;;13.60;10.60;;;;;;;;5101896;27;29271;-86
2022/03/11 14:08:13;;;;;;;;;85.75;70.00;;;;;;;;5109425;27;28558;-86
2022/03/11 14:10:44;;;;;;;;;9.00;9.00;;;;;;;;5117189;27;28317;-87
2022/03/11 14:13:11;;;;;;;;;73.00;60.75;;;;;;;;5104238;27;28512;-87
2022/03/11 14:15:37;;;;;;;;;22.25;22.25;;;;;;;;5122218;27;28329;-86
2022/03/11 14:18:03;;;;;;;;;38.75;38.75;;;;;;;;5092128;27;28486;-88
2022/03/11 14:20:30;;;;;;;;;12.00;9.40;;;;;;;;5116837;27;28460;-86